createdAt,value
2018-10-03T00:00:34.926Z,16.27
2018-10-03T00:01:40.194Z,13.38
2018-10-03T00:02:44.794Z,22.22
2018-10-03T00:03:50.263Z,18.23
2018-10-03T00:04:54.342Z,11.18
2018-10-03T00:05:58.685Z,13.30
2018-10-03T00:07:02.787Z,17.30
2018-10-03T00:08:06.956Z,20.80
2018-10-03T00:09:11.427Z,22.15
2018-10-03T00:10:16.512Z,10.82
2018-10-03T00:11:20.789Z,13.20
2018-10-03T00:12:24.904Z,19.82
2018-10-03T00:13:29.074Z,15.08
2018-10-03T00:14:33.268Z,17.92
2018-10-03T00:15:37.391Z,14.65
2018-10-03T00:16:41.820Z,19.37
2018-10-03T00:17:45.983Z,11.35
2018-10-03T00:18:50.229Z,14.93
2018-10-03T00:19:54.346Z,19.75
2018-10-03T00:20:58.514Z,22.35
2018-10-03T00:22:02.882Z,21.87
2018-10-03T00:23:07.444Z,15.72
2018-10-03T00:24:13.822Z,14.50
2018-10-03T00:25:18.947Z,14.47
2018-10-03T00:26:24.149Z,16.25
2018-10-03T00:27:28.241Z,18.30
2018-10-03T00:28:32.379Z,25.37
2018-10-03T00:29:36.504Z,15.72
2018-10-03T00:30:40.629Z,18.00
2018-10-03T00:31:44.861Z,22.80
2018-10-03T00:32:49.039Z,14.00
2018-10-03T00:33:53.280Z,16.25
2018-10-03T00:34:57.433Z,25.68
2018-10-03T00:36:01.721Z,21.02
2018-10-03T00:37:06.160Z,16.48
2018-10-03T00:38:10.493Z,14.83
2018-10-03T00:39:15.248Z,19.23
2018-10-03T00:40:19.481Z,22.17
2018-10-03T00:41:23.653Z,20.30
2018-10-03T00:42:27.863Z,13.18
2018-10-03T00:43:32.847Z,15.05
2018-10-03T00:44:36.948Z,12.68
2018-10-03T00:45:41.205Z,20.85
2018-10-03T00:46:45.356Z,13.35
2018-10-03T00:47:49.518Z,12.63
2018-10-03T00:48:53.729Z,15.58
2018-10-03T00:49:57.957Z,16.30
2018-10-03T00:51:02.454Z,19.27
2018-10-03T00:52:06.618Z,15.93
2018-10-03T00:53:10.717Z,29.10
2018-10-03T00:54:14.931Z,19.25
2018-10-03T00:55:19.246Z,17.98
2018-10-03T00:56:24.650Z,13.40
2018-10-03T00:57:28.846Z,19.75
2018-10-03T00:58:33.469Z,14.60
2018-10-03T00:59:37.789Z,22.07
2018-10-03T01:00:41.969Z,21.17
2018-10-03T01:01:47.128Z,19.80
2018-10-03T01:02:51.865Z,19.32
2018-10-03T01:03:57.025Z,15.72
2018-10-03T01:05:01.833Z,19.92
2018-10-03T01:06:06.012Z,16.52
2018-10-03T01:07:10.125Z,22.42
2018-10-03T01:08:14.353Z,20.60
2018-10-03T01:09:21.678Z,15.08
2018-10-03T01:10:25.776Z,19.25
2018-10-03T01:11:30.725Z,15.58
2018-10-03T01:12:34.837Z,18.35
2018-10-03T01:13:38.932Z,19.23
2018-10-03T01:14:43.199Z,22.55
2018-10-03T01:15:48.573Z,18.62
2018-10-03T01:16:52.854Z,16.85
2018-10-03T01:17:57.108Z,20.10
2018-10-03T01:19:01.335Z,14.58
2018-10-03T01:20:06.445Z,26.50
2018-10-03T01:21:10.501Z,22.50
2018-10-03T01:22:14.707Z,24.75
2018-10-03T01:23:19.641Z,16.73
2018-10-03T01:24:23.663Z,20.88
2018-10-03T01:25:29.405Z,24.32
2018-10-03T01:26:34.095Z,21.62
2018-10-03T01:27:38.333Z,19.48
2018-10-03T01:28:43.470Z,22.20
2018-10-03T01:29:47.716Z,22.42
2018-10-03T01:30:54.167Z,27.65
2018-10-03T01:31:58.269Z,29.70
2018-10-03T01:33:02.373Z,21.48
2018-10-03T01:34:06.672Z,25.68
2018-10-03T01:35:11.668Z,23.35
2018-10-03T01:36:15.840Z,27.67
2018-10-03T01:37:20.813Z,19.62
2018-10-03T01:38:25.540Z,24.35
2018-10-03T01:39:29.792Z,30.65
2018-10-03T01:40:33.864Z,27.65
2018-10-03T01:41:38.598Z,27.35
2018-10-03T01:42:42.865Z,31.10
2018-10-03T01:43:47.783Z,42.85
2018-10-03T01:44:52.642Z,39.35
2018-10-03T01:45:58.313Z,30.82
2018-10-03T01:47:03.284Z,34.03
2018-10-03T01:48:07.484Z,36.05
2018-10-03T01:49:11.670Z,36.05
2018-10-03T01:50:15.818Z,34.63
2018-10-03T01:51:19.999Z,34.53
2018-10-03T01:52:24.080Z,32.70
2018-10-03T01:53:28.213Z,34.35
2018-10-03T01:54:32.339Z,39.85
2018-10-03T01:55:36.388Z,40.45
2018-10-03T01:56:41.024Z,42.27
2018-10-03T01:57:45.113Z,38.65
2018-10-03T01:58:49.264Z,43.90
2018-10-03T02:00:01.259Z,46.45
2018-10-03T02:01:05.392Z,34.53
2018-10-03T02:02:10.222Z,39.50
2018-10-03T02:03:14.926Z,38.73
2018-10-03T02:04:19.028Z,46.18
2018-10-03T02:05:23.231Z,37.70
2018-10-03T02:06:27.309Z,37.58
2018-10-03T02:07:31.532Z,52.20
2018-10-03T02:08:36.361Z,45.60
2018-10-03T02:09:40.544Z,45.23
2018-10-03T02:10:45.906Z,44.48
2018-10-03T02:11:50.082Z,50.67
2018-10-03T02:12:54.305Z,52.78
2018-10-03T02:13:58.464Z,49.70
2018-10-03T02:15:03.883Z,40.65
2018-10-03T02:16:07.991Z,47.73
2018-10-03T02:17:12.985Z,53.13
2018-10-03T02:18:17.057Z,39.98
2018-10-03T02:19:21.134Z,42.95
2018-10-03T02:20:25.367Z,42.10
2018-10-03T02:21:31.564Z,48.38
2018-10-03T02:22:35.785Z,44.25
2018-10-03T02:23:40.037Z,50.05
2018-10-03T02:24:44.209Z,52.98
2018-10-03T02:25:48.395Z,42.00
2018-10-03T02:26:52.656Z,50.30
2018-10-03T02:27:56.802Z,44.83
2018-10-03T02:29:02.198Z,45.98
2018-10-03T02:30:08.204Z,52.00
2018-10-03T02:31:12.273Z,49.30
2018-10-03T02:32:17.017Z,48.40
2018-10-03T02:33:21.287Z,54.42
2018-10-03T02:34:25.542Z,50.60
2018-10-03T02:35:29.632Z,59.13
2018-10-03T02:36:33.849Z,47.62
2018-10-03T02:37:38.021Z,52.58
2018-10-03T02:38:42.475Z,52.58
2018-10-03T02:39:48.816Z,47.03
2018-10-03T02:40:53.035Z,50.80
2018-10-03T02:41:57.357Z,50.25
2018-10-03T02:43:01.463Z,52.48
2018-10-03T02:44:05.773Z,48.15
2018-10-03T02:45:09.911Z,53.02
2018-10-03T02:46:14.105Z,52.17
2018-10-03T02:47:18.289Z,53.48
2018-10-03T02:48:23.057Z,45.15
2018-10-03T02:49:27.592Z,47.05
2018-10-03T02:50:31.701Z,43.00
2018-10-03T02:51:36.356Z,55.75
2018-10-03T02:52:40.801Z,47.90
2018-10-03T02:53:45.034Z,45.20
2018-10-03T02:54:49.152Z,56.33
2018-10-03T02:55:53.309Z,50.90
2018-10-03T02:56:57.931Z,48.87
2018-10-03T02:58:02.333Z,46.23
2018-10-03T02:59:06.787Z,51.13
2018-10-03T03:00:11.082Z,44.40
2018-10-03T03:01:16.017Z,47.45
2018-10-03T03:02:20.911Z,49.30
2018-10-03T03:03:25.631Z,47.43
2018-10-03T03:04:29.861Z,48.33
2018-10-03T03:05:34.729Z,45.10
2018-10-03T03:06:38.893Z,54.25
2018-10-03T03:07:43.724Z,50.48
2018-10-03T03:08:48.440Z,54.27
2018-10-03T03:09:52.804Z,46.02
2018-10-03T03:10:56.952Z,51.20
2018-10-03T03:12:01.198Z,47.33
2018-10-03T03:13:07.027Z,54.15
2018-10-03T03:14:11.394Z,50.43
2018-10-03T03:15:15.493Z,50.38
2018-10-03T03:16:19.782Z,47.38
2018-10-03T03:17:24.977Z,48.17
2018-10-03T03:18:29.114Z,51.75
2018-10-03T03:19:34.043Z,63.78
2018-10-03T03:20:38.560Z,57.95
2018-10-03T03:21:43.319Z,55.73
2018-10-03T03:22:47.617Z,54.80
2018-10-03T03:23:51.983Z,49.95
2018-10-03T03:24:56.295Z,52.48
2018-10-03T03:26:01.701Z,53.65
2018-10-03T03:27:05.925Z,43.55
2018-10-03T03:28:11.069Z,55.58
2018-10-03T03:29:15.294Z,51.13
2018-10-03T03:30:20.036Z,55.75
2018-10-03T03:31:24.297Z,52.88
2018-10-03T03:32:28.396Z,55.70
2018-10-03T03:33:32.680Z,60.43
2018-10-03T03:34:36.851Z,49.23
2018-10-03T03:35:41.074Z,47.70
2018-10-03T03:36:45.184Z,56.23
2018-10-03T03:37:49.297Z,51.02
2018-10-03T03:38:53.341Z,53.48
2018-10-03T03:39:58.612Z,55.08
2018-10-03T03:41:02.738Z,50.03
2018-10-03T03:42:07.678Z,53.05
2018-10-03T03:43:11.853Z,57.50
2018-10-03T03:44:15.969Z,51.33
2018-10-03T03:45:21.233Z,46.42
2018-10-03T03:46:25.653Z,51.73
2018-10-03T03:47:29.754Z,53.10
2018-10-03T03:48:33.969Z,52.48
2018-10-03T03:49:38.201Z,50.67
2018-10-03T03:50:42.622Z,56.25
2018-10-03T03:51:46.755Z,51.53
2018-10-03T03:52:50.817Z,53.78
2018-10-03T03:53:54.916Z,44.40
2018-10-03T03:54:59.008Z,47.35
2018-10-03T03:56:03.110Z,52.27
2018-10-03T03:57:07.282Z,47.83
2018-10-03T03:58:11.632Z,47.80
2018-10-03T03:59:15.832Z,52.48
2018-10-03T04:00:20.020Z,53.80
2018-10-03T04:01:24.717Z,51.40
2018-10-03T04:02:29.862Z,49.80
2018-10-03T04:03:34.590Z,43.52
2018-10-03T04:04:39.249Z,41.58
2018-10-03T04:05:44.465Z,55.95
2018-10-03T04:06:48.727Z,50.15
2018-10-03T04:07:54.568Z,54.48
2018-10-03T04:08:59.465Z,60.40
2018-10-03T04:10:03.582Z,48.08
2018-10-03T04:11:07.717Z,63.30
2018-10-03T04:12:11.922Z,50.75
2018-10-03T04:13:16.088Z,48.08
2018-10-03T04:14:20.242Z,49.42
2018-10-03T04:15:24.590Z,48.25
2018-10-03T04:16:28.800Z,56.28
2018-10-03T04:17:33.521Z,49.13
2018-10-03T04:18:37.838Z,45.80
2018-10-03T04:19:41.925Z,49.30
2018-10-03T04:20:46.163Z,47.25
2018-10-03T04:21:50.345Z,44.45
2018-10-03T04:22:54.461Z,60.12
2018-10-03T04:23:58.838Z,45.98
2018-10-03T04:25:03.648Z,58.30
2018-10-03T04:26:08.542Z,51.33
2018-10-03T04:27:12.660Z,46.15
2018-10-03T04:28:16.965Z,42.88
2018-10-03T04:29:21.137Z,54.03
2018-10-03T04:30:26.394Z,47.85
2018-10-03T04:31:30.820Z,47.85
2018-10-03T04:32:35.168Z,47.67
2018-10-03T04:33:39.502Z,45.38
2018-10-03T04:34:43.766Z,44.60
2018-10-03T04:35:48.821Z,48.58
2018-10-03T04:36:53.077Z,42.40
2018-10-03T04:37:57.220Z,46.95
2018-10-03T04:39:02.565Z,50.63
2018-10-03T04:40:07.093Z,44.77
2018-10-03T04:41:11.778Z,57.33
2018-10-03T04:42:18.165Z,44.38
2018-10-03T04:43:23.244Z,47.43
2018-10-03T04:44:27.397Z,41.08
2018-10-03T04:45:31.961Z,48.08
2018-10-03T04:46:36.254Z,42.00
2018-10-03T04:47:40.550Z,43.33
2018-10-03T04:48:45.042Z,38.23
2018-10-03T04:49:49.223Z,43.48
2018-10-03T04:50:53.346Z,50.52
2018-10-03T04:51:57.545Z,38.67
2018-10-03T04:53:02.048Z,37.35
2018-10-03T04:54:06.201Z,43.98
2018-10-03T04:55:10.921Z,45.28
2018-10-03T04:56:16.298Z,36.85
2018-10-03T04:57:20.428Z,37.78
2018-10-03T04:58:25.197Z,37.58
2018-10-03T04:59:29.500Z,41.50
2018-10-03T05:00:33.754Z,35.60
2018-10-03T05:01:38.021Z,33.65
2018-10-03T05:02:43.067Z,39.23
2018-10-03T05:03:47.327Z,48.60
2018-10-03T05:04:51.499Z,39.13
2018-10-03T05:05:55.668Z,33.92
2018-10-03T05:06:59.977Z,33.15
2018-10-03T05:08:04.227Z,34.20
2018-10-03T05:09:09.399Z,35.80
2018-10-03T05:10:14.232Z,41.40
2018-10-03T05:11:18.437Z,38.08
2018-10-03T05:12:22.606Z,32.78
2018-10-03T05:13:27.497Z,39.78
2018-10-03T05:14:31.629Z,31.33
2018-10-03T05:15:37.067Z,40.75
2018-10-03T05:16:41.975Z,36.77
2018-10-03T05:17:46.312Z,33.65
2018-10-03T05:18:50.392Z,42.27
2018-10-03T05:19:54.598Z,37.65
2018-10-03T05:20:58.909Z,38.88
2018-10-03T05:22:03.123Z,36.28
2018-10-03T05:23:07.796Z,45.23
2018-10-03T05:24:12.252Z,44.60
2018-10-03T05:25:16.404Z,28.90
2018-10-03T05:26:20.735Z,30.95
2018-10-03T05:27:25.547Z,26.90
2018-10-03T05:28:29.704Z,40.90
2018-10-03T05:29:33.975Z,30.88
2018-10-03T05:30:38.368Z,27.95
2018-10-03T05:31:42.414Z,33.25
2018-10-03T05:32:46.624Z,32.88
2018-10-03T05:33:50.800Z,46.55
2018-10-03T05:34:55.019Z,25.85
2018-10-03T05:35:59.336Z,36.93
2018-10-03T05:37:03.552Z,28.17
2018-10-03T05:38:08.316Z,26.52
2018-10-03T05:39:13.424Z,30.10
2018-10-03T05:40:17.560Z,38.85
2018-10-03T05:41:21.717Z,27.52
2018-10-03T05:42:25.830Z,31.48
2018-10-03T05:43:29.964Z,38.65
2018-10-03T05:44:34.189Z,28.38
2018-10-03T05:45:38.452Z,23.20
2018-10-03T05:46:43.130Z,26.23
2018-10-03T05:47:47.697Z,30.92
2018-10-03T05:48:51.868Z,30.30
2018-10-03T05:49:56.025Z,41.50
2018-10-03T05:51:00.208Z,31.70
2018-10-03T05:52:05.705Z,21.45
2018-10-03T05:53:10.472Z,29.80
2018-10-03T05:54:14.682Z,30.80
2018-10-03T05:55:19.032Z,26.90
2018-10-03T05:56:23.404Z,43.00
2018-10-03T05:57:28.373Z,17.52
2018-10-03T05:58:33.125Z,30.57
2018-10-03T05:59:37.370Z,27.15
2018-10-03T06:00:42.162Z,23.30
2018-10-03T06:01:46.368Z,34.55
2018-10-03T06:02:51.383Z,30.23
2018-10-03T06:03:56.295Z,26.42
2018-10-03T06:05:02.527Z,19.73
2018-10-03T06:06:07.152Z,22.02
2018-10-03T06:07:12.386Z,24.10
2018-10-03T06:08:16.723Z,29.23
2018-10-03T06:09:20.831Z,26.65
2018-10-03T06:10:24.947Z,25.02
2018-10-03T06:11:29.464Z,32.80
2018-10-03T06:12:33.765Z,34.80
2018-10-03T06:13:37.952Z,23.83
2018-10-03T06:14:42.925Z,25.52
2018-10-03T06:15:47.014Z,23.22
2018-10-03T06:16:51.186Z,27.22
2018-10-03T06:17:56.499Z,29.87
2018-10-03T06:19:01.206Z,27.42
2018-10-03T06:20:06.341Z,33.67
2018-10-03T06:21:10.992Z,21.77
2018-10-03T06:22:15.261Z,20.23
2018-10-03T06:23:19.858Z,21.87
2018-10-03T06:24:24.925Z,20.15
2018-10-03T06:25:29.036Z,22.82
2018-10-03T06:26:33.366Z,25.30
2018-10-03T06:27:37.566Z,22.55
2018-10-03T06:28:41.839Z,24.70
2018-10-03T06:29:46.205Z,26.48
2018-10-03T06:30:50.392Z,29.75
2018-10-03T06:31:54.533Z,32.10
2018-10-03T06:32:58.686Z,22.77
2018-10-03T06:34:02.915Z,21.87
2018-10-03T06:35:07.738Z,25.62
2018-10-03T06:36:12.128Z,18.92
2018-10-03T06:37:16.173Z,30.75
2018-10-03T06:38:20.317Z,23.38
2018-10-03T06:39:24.724Z,19.70
2018-10-03T06:40:28.964Z,21.95
2018-10-03T06:41:34.007Z,27.48
2018-10-03T06:42:38.203Z,25.17
2018-10-03T06:43:42.373Z,22.55
2018-10-03T06:44:46.613Z,25.68
2018-10-03T06:45:50.923Z,24.25
2018-10-03T06:46:55.226Z,24.07
2018-10-03T06:47:59.404Z,22.17
2018-10-03T06:49:05.022Z,34.60
2018-10-03T06:50:09.165Z,24.67
2018-10-03T06:51:13.245Z,25.45
2018-10-03T06:52:18.035Z,28.75
2018-10-03T06:53:22.373Z,20.50
2018-10-03T06:54:26.853Z,14.05
2018-10-03T06:55:31.006Z,38.75
2018-10-03T06:56:35.385Z,29.07
2018-10-03T06:57:39.511Z,29.87
2018-10-03T06:58:43.706Z,27.40
2018-10-03T06:59:47.847Z,18.77
2018-10-03T07:00:52.237Z,31.30
2018-10-03T07:01:56.378Z,22.95
2018-10-03T07:03:00.737Z,17.40
2018-10-03T07:04:04.887Z,26.85
2018-10-03T07:05:09.353Z,31.77
2018-10-03T07:06:13.430Z,22.67
2018-10-03T07:07:17.676Z,15.83
2018-10-03T07:08:22.476Z,21.10
2018-10-03T07:09:27.570Z,21.48
2018-10-03T07:10:31.774Z,21.57
2018-10-03T07:11:36.158Z,26.70
2018-10-03T07:12:40.336Z,27.05
2018-10-03T07:13:44.558Z,20.92
2018-10-03T07:14:48.672Z,32.67
2018-10-03T07:15:52.976Z,34.50
2018-10-03T07:16:57.155Z,29.55
2018-10-03T07:18:01.373Z,32.23
2018-10-03T07:19:05.526Z,20.90
2018-10-03T07:20:09.785Z,19.20
2018-10-03T07:21:14.797Z,28.67
2018-10-03T07:22:18.977Z,15.53
2018-10-03T07:23:23.177Z,22.45
2018-10-03T07:24:27.236Z,18.87
2018-10-03T07:25:31.388Z,32.15
2018-10-03T07:26:36.037Z,27.67
2018-10-03T07:27:41.122Z,22.87
2018-10-03T07:28:45.266Z,23.12
2018-10-03T07:29:49.386Z,25.95
2018-10-03T07:30:53.552Z,27.45
2018-10-03T07:31:57.956Z,26.87
2018-10-03T07:33:03.040Z,27.02
2018-10-03T07:34:07.205Z,17.25
2018-10-03T07:35:11.349Z,20.77
2018-10-03T07:36:15.457Z,26.97
2018-10-03T07:37:19.685Z,27.95
2018-10-03T07:38:24.004Z,22.00
2018-10-03T07:39:29.493Z,20.40
2018-10-03T07:40:33.615Z,25.43
2018-10-03T07:41:38.683Z,21.80
2018-10-03T07:42:42.922Z,23.32
2018-10-03T07:43:53.649Z,20.62
2018-10-03T07:44:57.674Z,26.95
2018-10-03T07:46:01.761Z,30.92
2018-10-03T07:47:05.986Z,27.07
2018-10-03T07:48:10.249Z,27.42
2018-10-03T07:49:14.293Z,20.50
2018-10-03T07:50:18.405Z,24.30
2018-10-03T07:51:22.448Z,25.45
2018-10-03T07:52:27.519Z,23.80
2018-10-03T07:53:31.936Z,24.05
2018-10-03T07:54:36.230Z,21.57
2018-10-03T07:55:41.004Z,29.80
2018-10-03T07:56:45.381Z,19.42
2018-10-03T07:57:49.532Z,25.02
2018-10-03T07:58:53.629Z,30.82
2018-10-03T07:59:57.823Z,19.90
2018-10-03T08:01:02.502Z,19.92
2018-10-03T08:02:06.767Z,24.37
2018-10-03T08:03:13.276Z,22.37
2018-10-03T08:04:17.410Z,31.90
2018-10-03T08:05:22.172Z,21.27
2018-10-03T08:06:26.348Z,25.23
2018-10-03T08:07:30.439Z,21.15
2018-10-03T08:08:35.805Z,24.43
2018-10-03T08:09:39.972Z,21.57
2018-10-03T08:10:44.065Z,19.45
2018-10-03T08:11:48.289Z,21.33
2018-10-03T08:12:53.344Z,27.15
2018-10-03T08:13:57.665Z,25.40
2018-10-03T08:15:02.077Z,26.85
2018-10-03T08:16:06.264Z,14.78
2018-10-03T08:17:10.516Z,21.62
2018-10-03T08:18:14.867Z,25.43
2018-10-03T08:19:19.128Z,26.55
2018-10-03T08:20:23.951Z,15.68
2018-10-03T08:21:28.045Z,29.15
2018-10-03T08:22:32.338Z,33.02
2018-10-03T08:23:36.851Z,20.65
2018-10-03T08:24:41.047Z,18.57
2018-10-03T08:25:45.216Z,20.85
2018-10-03T08:26:49.281Z,20.75
2018-10-03T08:27:53.707Z,19.37
2018-10-03T08:28:58.814Z,20.92
2018-10-03T08:30:02.998Z,30.02
2018-10-03T08:31:07.189Z,28.25
2018-10-03T08:32:11.406Z,21.65
2018-10-03T08:33:15.614Z,20.72
2018-10-03T08:34:19.999Z,22.22
2018-10-03T08:35:24.394Z,23.60
2018-10-03T08:36:29.121Z,20.60
2018-10-03T08:37:33.964Z,19.98
2018-10-03T08:38:38.205Z,26.30
2018-10-03T08:39:43.457Z,22.82
2018-10-03T08:40:49.264Z,22.25
2018-10-03T08:41:53.569Z,21.87
2018-10-03T08:42:57.723Z,21.00
2018-10-03T08:44:02.791Z,14.20
2018-10-03T08:45:07.411Z,22.10
2018-10-03T08:46:12.118Z,19.50
2018-10-03T08:47:16.378Z,20.75
2018-10-03T08:48:20.662Z,24.50
2018-10-03T08:49:25.523Z,25.45
2018-10-03T08:50:30.638Z,25.95
2018-10-03T08:51:34.933Z,25.00
2018-10-03T08:52:39.795Z,17.80
2018-10-03T08:53:43.993Z,21.93
2018-10-03T08:54:48.218Z,16.42
2018-10-03T08:55:52.530Z,17.27
2018-10-03T08:56:56.880Z,19.87
2018-10-03T08:58:01.785Z,23.27
2018-10-03T08:59:06.166Z,14.03
2018-10-03T09:00:11.241Z,36.88
2018-10-03T09:01:16.832Z,25.88
2018-10-03T09:02:21.222Z,14.90
2018-10-03T09:03:26.204Z,23.12
2018-10-03T09:04:30.470Z,36.25
2018-10-03T09:05:34.589Z,18.20
2018-10-03T09:06:38.728Z,16.67
2018-10-03T09:07:43.353Z,15.40
2018-10-03T09:08:47.586Z,19.42
2018-10-03T09:09:51.799Z,28.52
2018-10-03T09:10:56.927Z,20.05
2018-10-03T09:12:01.622Z,20.27
2018-10-03T09:13:05.703Z,22.00
2018-10-03T09:14:09.748Z,21.42
2018-10-03T09:15:14.719Z,12.73
2018-10-03T09:16:18.753Z,14.33
2018-10-03T09:17:23.838Z,19.05
2018-10-03T09:18:28.173Z,17.95
2018-10-03T09:19:33.035Z,21.52
2018-10-03T09:20:37.226Z,25.25
2018-10-03T09:21:42.633Z,24.05
2018-10-03T09:22:46.880Z,21.27
2018-10-03T09:23:52.221Z,17.90
2018-10-03T09:24:56.363Z,29.72
2018-10-03T09:26:00.451Z,16.23
2018-10-03T09:27:04.613Z,21.77
2018-10-03T09:28:08.939Z,19.30
2018-10-03T09:29:13.347Z,18.85
2018-10-03T09:30:18.000Z,22.93
2018-10-03T09:31:24.414Z,17.30
2018-10-03T09:32:28.453Z,14.40
2018-10-03T09:33:32.725Z,16.55
2018-10-03T09:34:36.832Z,22.75
2018-10-03T09:35:41.904Z,34.75
2018-10-03T09:36:46.020Z,24.77
2018-10-03T09:37:50.467Z,14.30
2018-10-03T09:38:55.138Z,19.27
2018-10-03T09:39:59.256Z,18.62
2018-10-03T09:41:03.415Z,19.82
2018-10-03T09:42:07.528Z,16.55
2018-10-03T09:43:13.345Z,12.03
2018-10-03T09:44:17.492Z,24.57
2018-10-03T09:45:21.680Z,18.52
2018-10-03T09:46:25.882Z,14.98
2018-10-03T09:47:29.982Z,12.58
2018-10-03T09:48:34.041Z,14.75
2018-10-03T09:49:38.617Z,15.23
2018-10-03T09:50:42.688Z,17.52
2018-10-03T09:51:47.608Z,19.70
2018-10-03T09:52:51.910Z,15.15
2018-10-03T09:53:56.098Z,22.17
2018-10-03T09:55:00.264Z,19.60
2018-10-03T09:56:04.495Z,18.50
2018-10-03T09:57:10.184Z,30.80
2018-10-03T09:58:14.260Z,17.27
2018-10-03T09:59:18.492Z,21.52
2018-10-03T10:00:28.043Z,19.67
2018-10-03T10:01:34.897Z,14.45
2018-10-03T10:02:40.222Z,14.80
2018-10-03T10:03:44.339Z,8.30
2018-10-03T10:04:48.705Z,9.40
2018-10-03T10:05:54.342Z,13.65
2018-10-03T10:06:58.580Z,19.17
2018-10-03T10:08:02.666Z,20.20
2018-10-03T10:09:10.518Z,17.48
2018-10-03T10:10:14.719Z,18.15
2018-10-03T10:11:19.283Z,24.80
2018-10-03T10:12:24.779Z,20.17
2018-10-03T10:13:30.018Z,22.73
2018-10-03T10:14:34.098Z,18.50
2018-10-03T10:15:38.195Z,13.53
2018-10-03T10:16:42.314Z,26.15
2018-10-03T10:17:47.055Z,19.90
2018-10-03T10:18:51.449Z,15.45
2018-10-03T10:19:55.593Z,19.23
2018-10-03T10:20:59.727Z,16.87
2018-10-03T10:22:03.932Z,20.43
2018-10-03T10:23:08.028Z,18.42
2018-10-03T10:24:12.218Z,17.57
2018-10-03T10:25:16.280Z,18.98
2018-10-03T10:26:20.393Z,18.32
2018-10-03T10:27:25.436Z,17.67
2018-10-03T10:28:29.764Z,19.70
2018-10-03T10:29:34.063Z,20.25
2018-10-03T10:30:38.452Z,16.97
2018-10-03T10:31:42.679Z,16.75
2018-10-03T10:32:47.615Z,14.85
2018-10-03T10:33:51.864Z,20.25
2018-10-03T10:34:56.033Z,15.93
2018-10-03T10:36:00.478Z,16.55
2018-10-03T10:37:04.674Z,20.20
2018-10-03T10:38:08.778Z,25.57
2018-10-03T10:39:13.097Z,14.03
2018-10-03T10:40:19.673Z,11.68
2018-10-03T10:41:23.833Z,13.32
2018-10-03T10:42:28.015Z,16.48
2018-10-03T10:43:32.198Z,20.80
2018-10-03T10:44:36.301Z,26.97
2018-10-03T10:45:40.479Z,26.45
2018-10-03T10:46:45.268Z,21.93
2018-10-03T10:47:50.085Z,16.02
2018-10-03T10:48:55.154Z,28.35
2018-10-03T10:49:59.365Z,24.35
2018-10-03T10:51:03.540Z,18.85
2018-10-03T10:52:07.732Z,15.40
2018-10-03T10:53:12.980Z,19.65
2018-10-03T10:54:17.060Z,13.68
2018-10-03T10:55:24.130Z,24.63
2018-10-03T10:56:29.429Z,26.60
2018-10-03T10:57:33.700Z,19.82
2018-10-03T10:58:37.878Z,17.35
2018-10-03T10:59:42.150Z,11.85
2018-10-03T11:00:46.215Z,17.60
2018-10-03T11:01:50.454Z,17.73
2018-10-03T11:02:54.638Z,18.05
2018-10-03T11:03:58.787Z,17.60
2018-10-03T11:05:02.924Z,20.23
2018-10-03T11:06:08.101Z,16.82
2018-10-03T11:07:12.157Z,24.15
2018-10-03T11:08:16.715Z,21.85
2018-10-03T11:09:20.882Z,22.67
2018-10-03T11:10:25.022Z,15.85
2018-10-03T11:11:29.198Z,26.45
2018-10-03T11:12:33.311Z,14.78
2018-10-03T11:13:37.406Z,19.52
2018-10-03T11:14:42.564Z,27.30
2018-10-03T11:15:47.315Z,14.98
2018-10-03T11:16:51.523Z,16.65
2018-10-03T11:17:56.463Z,19.20
2018-10-03T11:19:00.814Z,22.85
2018-10-03T11:20:06.084Z,16.40
2018-10-03T11:21:10.263Z,18.40
2018-10-03T11:22:15.596Z,16.82
2018-10-03T11:23:19.812Z,16.65
2018-10-03T11:24:25.148Z,21.77
2018-10-03T11:25:29.912Z,12.05
2018-10-03T11:26:34.177Z,21.52
2018-10-03T11:27:38.918Z,17.62
2018-10-03T11:28:43.644Z,14.23
2018-10-03T11:29:47.966Z,22.93
2018-10-03T11:30:53.551Z,17.52
2018-10-03T11:31:57.717Z,14.87
2018-10-03T11:33:02.531Z,23.22
2018-10-03T11:34:07.813Z,21.65
2018-10-03T11:35:12.102Z,21.15
2018-10-03T11:36:16.297Z,13.70
2018-10-03T11:37:20.601Z,18.35
2018-10-03T11:38:25.083Z,14.78
2018-10-03T11:39:29.363Z,23.50
2018-10-03T11:40:33.432Z,20.70
2018-10-03T11:41:38.856Z,24.02
2018-10-03T11:42:45.458Z,15.05
2018-10-03T11:43:49.583Z,14.63
2018-10-03T11:44:53.744Z,17.40
2018-10-03T11:45:58.115Z,19.55
2018-10-03T11:47:02.296Z,15.63
2018-10-03T11:48:07.420Z,11.97
2018-10-03T11:49:13.348Z,14.07
2018-10-03T11:50:17.598Z,15.38
2018-10-03T11:51:22.405Z,15.25
2018-10-03T11:52:26.540Z,21.93
2018-10-03T11:53:31.165Z,16.73
2018-10-03T11:54:35.251Z,19.52
2018-10-03T11:55:39.432Z,17.67
2018-10-03T11:56:43.701Z,22.22
2018-10-03T11:57:48.061Z,25.17
2018-10-03T11:58:52.867Z,28.90
2018-10-03T11:59:56.995Z,11.40
2018-10-03T12:01:01.151Z,20.15
2018-10-03T12:02:05.917Z,13.22
2018-10-03T12:03:12.154Z,28.20
2018-10-03T12:04:16.854Z,16.93
2018-10-03T12:05:21.873Z,10.93
2018-10-03T12:06:26.811Z,21.52
2018-10-03T12:07:30.892Z,24.90
2018-10-03T12:08:35.063Z,13.68
2018-10-03T12:09:39.196Z,25.32
2018-10-03T12:10:43.918Z,24.90
2018-10-03T12:11:48.215Z,9.93
2018-10-03T12:12:52.438Z,15.28
2018-10-03T12:13:56.607Z,16.30
2018-10-03T12:15:01.719Z,16.80
2018-10-03T12:16:05.859Z,21.23
2018-10-03T12:17:10.253Z,17.23
2018-10-03T12:18:15.490Z,17.80
2018-10-03T12:19:19.750Z,26.45
2018-10-03T12:20:24.697Z,16.10
2018-10-03T12:21:28.898Z,16.52
2018-10-03T12:22:33.038Z,18.25
2018-10-03T12:23:38.003Z,12.55
2018-10-03T12:24:42.212Z,14.93
2018-10-03T12:25:46.486Z,16.62
2018-10-03T12:26:50.794Z,16.35
2018-10-03T12:27:54.996Z,15.15
2018-10-03T12:28:59.970Z,14.87
2018-10-03T12:30:04.378Z,22.22
2018-10-03T12:31:08.537Z,19.07
2018-10-03T12:32:12.803Z,17.98
2018-10-03T12:33:17.749Z,12.78
2018-10-03T12:34:21.941Z,13.22
2018-10-03T12:35:32.668Z,15.13
2018-10-03T12:36:37.434Z,15.00
2018-10-03T12:37:42.388Z,22.00
2018-10-03T12:38:46.610Z,18.87
2018-10-03T12:39:50.853Z,17.67
2018-10-03T12:40:55.118Z,17.25
2018-10-03T12:41:59.689Z,13.22
2018-10-03T12:43:04.370Z,26.35
2018-10-03T12:44:09.507Z,16.57
2018-10-03T12:45:13.733Z,17.40
2018-10-03T12:46:17.787Z,16.82
2018-10-03T12:47:22.655Z,16.97
2018-10-03T12:48:28.210Z,18.57
2018-10-03T12:49:32.389Z,21.35
2018-10-03T12:50:37.404Z,15.08
2018-10-03T12:51:41.503Z,20.43
2018-10-03T12:52:46.022Z,16.77
2018-10-03T12:53:50.202Z,12.37
2018-10-03T12:54:54.329Z,30.27
2018-10-03T12:55:58.389Z,18.62
2018-10-03T12:57:02.656Z,13.05
2018-10-03T12:58:07.444Z,27.95
2018-10-03T12:59:11.601Z,19.75
2018-10-03T13:00:15.969Z,29.52
2018-10-03T13:01:21.287Z,23.22
2018-10-03T13:02:25.988Z,18.35
2018-10-03T13:03:30.665Z,21.12
2018-10-03T13:04:38.499Z,21.25
2018-10-03T13:05:42.599Z,18.05
2018-10-03T13:06:46.706Z,14.63
2018-10-03T13:07:51.071Z,20.40
2018-10-03T13:08:55.157Z,23.77
2018-10-03T13:09:59.232Z,16.02
2018-10-03T13:11:03.943Z,11.12
2018-10-03T13:12:08.487Z,13.03
2018-10-03T13:13:12.673Z,18.80
2018-10-03T13:14:17.450Z,16.32
2018-10-03T13:15:21.649Z,14.78
2018-10-03T13:16:25.795Z,30.40
2018-10-03T13:17:29.870Z,15.80
2018-10-03T13:18:33.955Z,11.93
2018-10-03T13:19:38.324Z,18.27
2018-10-03T13:20:42.444Z,16.35
2018-10-03T13:21:47.518Z,21.17
2018-10-03T13:22:51.714Z,17.30
2018-10-03T13:23:55.857Z,16.30
2018-10-03T13:25:00.250Z,18.82
2018-10-03T13:26:04.506Z,10.25
2018-10-03T13:27:08.659Z,11.22
2018-10-03T13:28:14.192Z,19.15
2018-10-03T13:29:18.310Z,13.72
2018-10-03T13:30:22.497Z,16.55
2018-10-03T13:31:26.865Z,16.93
2018-10-03T13:32:30.970Z,16.15
2018-10-03T13:33:35.333Z,12.23
2018-10-03T13:34:39.452Z,18.35
2018-10-03T13:35:43.537Z,21.35
2018-10-03T13:36:47.820Z,9.93
2018-10-03T13:37:52.387Z,11.53
2018-10-03T13:38:56.606Z,16.50
2018-10-03T13:40:00.685Z,13.28
2018-10-03T13:41:04.885Z,13.62
2018-10-03T13:42:08.974Z,12.30
2018-10-03T13:43:13.070Z,16.10
2018-10-03T13:44:17.179Z,32.90
2018-10-03T13:45:21.377Z,18.42
2018-10-03T13:46:25.567Z,22.40
2018-10-03T13:47:29.611Z,52.13
2018-10-03T13:48:33.819Z,13.30
2018-10-03T13:49:37.880Z,14.13
2018-10-03T13:50:42.026Z,25.95